createdAt,value
2016-04-05T00:00:04.293Z,98.55
2016-04-05T00:01:04.311Z,98.94
2016-04-05T00:02:10.610Z,98.79
2016-04-05T00:03:17.082Z,98.7
2016-04-05T00:04:04.382Z,98.46
2016-04-05T00:05:04.385Z,98.51
2016-04-05T00:06:04.418Z,98.6
2016-04-05T00:07:04.438Z,98.03
2016-04-05T00:08:04.471Z,98.03
2016-04-05T00:09:04.474Z,98.22
2016-04-05T00:10:04.491Z,98.22
2016-04-05T00:11:04.494Z,98.03
2016-04-05T00:12:10.779Z,97.94
2016-04-05T00:13:10.828Z,97.94
2016-04-05T00:14:04.565Z,98.03
2016-04-05T00:15:04.614Z,97.75
2016-04-05T00:16:04.648Z,98.03
2016-04-05T00:17:04.620Z,97.75
2016-04-05T00:18:04.637Z,97.94
2016-04-05T00:19:17.407Z,98.6
2016-04-05T00:20:04.581Z,97.84
2016-04-05T00:21:04.709Z,98.6
2016-04-05T00:22:10.978Z,98.41
2016-04-05T00:23:04.730Z,98.51
2016-04-05T00:24:19.920Z,98.51
2016-04-05T00:25:19.953Z,98.41
2016-04-05T00:26:32.784Z,98.51
2016-04-05T00:27:19.975Z,98.22
2016-04-05T00:28:45.668Z,98.32
2016-04-05T00:29:20.075Z,98.51
2016-04-05T00:30:20.045Z,98.22
2016-04-05T00:31:32.798Z,98.32
2016-04-05T00:32:20.051Z,98.51
2016-04-05T00:33:20.101Z,98.7
2016-04-05T00:34:20.119Z,97.75
2016-04-05T00:35:20.122Z,98.13
2016-04-05T00:36:32.874Z,98.13
2016-04-05T00:37:51.473Z,97.94
2016-04-05T00:38:20.176Z,97.75
2016-04-05T00:39:20.273Z,98.03
2016-04-05T00:40:26.510Z,97.56
2016-04-05T00:41:20.247Z,97.36
2016-04-05T00:42:20.266Z,97.56
2016-04-05T00:43:20.284Z,97.36
2016-04-05T00:44:20.318Z,98.22
2016-04-05T00:45:26.601Z,97.75
2016-04-05T00:46:20.354Z,97.94
2016-04-05T00:47:20.373Z,97.94
2016-04-05T00:48:26.640Z,98.03
2016-04-05T00:49:20.393Z,97.94
2016-04-05T00:50:20.411Z,97.94
2016-04-05T00:51:20.430Z,97.75
2016-04-05T00:52:26.745Z,97.94
2016-04-05T00:53:20.669Z,98.03
2016-04-05T00:54:20.579Z,97.75
2016-04-05T00:55:20.519Z,97.36
2016-04-05T00:56:20.537Z,97.65
2016-04-05T00:57:20.556Z,98.03
2016-04-05T00:58:20.574Z,97.75
2016-04-05T00:59:33.342Z,98.22
2016-04-05T01:00:20.594Z,97.94
2016-04-05T01:01:39.832Z,98.22
2016-04-05T01:02:20.647Z,98.22
2016-04-05T01:03:20.666Z,98.6
2016-04-05T01:04:20.700Z,98.41
2016-04-05T01:05:20.703Z,98.6
2016-04-05T01:06:27.002Z,98.41
2016-04-05T01:07:20.770Z,98.32
2016-04-05T01:08:22.179Z,98.99
2016-04-05T01:09:20.791Z,98.79
2016-04-05T01:10:20.794Z,99.55
2016-04-05T01:11:27.093Z,99.65
2016-04-05T01:12:20.846Z,99.75
2016-04-05T01:13:20.864Z,99.37
2016-04-05T01:14:33.507Z,99.99
2016-04-05T01:15:46.575Z,99.99
2016-04-05T01:16:20.934Z,99.99
2016-04-05T01:17:20.781Z,99.99
2016-04-05T01:18:20.971Z,99.99
2016-04-05T01:19:27.068Z,99.99
2016-04-05T01:20:23.930Z,99.99
2016-04-05T01:21:24.073Z,99.99
2016-04-05T01:22:24.092Z,99.99
2016-04-05T01:23:43.312Z,99.99
2016-04-05T01:24:24.128Z,99.99
2016-04-05T01:25:55.461Z,99.75
2016-04-05T01:26:33.695Z,99.94
2016-04-05T01:28:05.014Z,99.94
2016-04-05T01:28:33.733Z,99.94
2016-04-05T01:29:33.782Z,99.99
2016-04-05T01:30:33.769Z,99.99
2016-04-05T01:31:40.038Z,99.99
2016-04-05T01:32:33.806Z,99.99
2016-04-05T01:33:33.856Z,99.99
2016-04-05T01:34:33.842Z,99.99
2016-04-05T01:35:33.908Z,99.99
2016-04-05T01:36:33.894Z,99.84
2016-04-05T01:37:33.897Z,99.99
2016-04-05T01:38:46.652Z,99.99
2016-04-05T01:39:33.934Z,99.99
2016-04-05T01:40:33.953Z,99.84
2016-04-05T01:41:33.986Z,99.46
2016-04-05T01:42:46.742Z,99.65
2016-04-05T01:43:34.008Z,99.65
2016-04-05T01:44:59.701Z,99.84
2016-04-05T01:45:34.065Z,99.84
2016-04-05T01:46:34.142Z,99.84
2016-04-05T01:47:40.202Z,99.65
2016-04-05T01:48:34.125Z,99.84
2016-04-05T01:49:34.135Z,99.65
2016-04-05T01:50:46.875Z,99.65
2016-04-05T01:51:34.187Z,99.65
2016-04-05T01:52:53.412Z,99.08
2016-04-05T01:53:46.945Z,99.37
2016-04-05T01:54:59.902Z,99.94
2016-04-05T01:55:53.451Z,99.55
2016-04-05T01:56:34.279Z,99.84
2016-04-05T01:57:59.956Z,99.94
2016-04-05T01:58:43.800Z,99.94
2016-04-05T01:59:43.834Z,99.94
2016-04-05T02:00:56.590Z,99.84
2016-04-05T02:01:43.871Z,99.84
2016-04-05T02:03:03.111Z,99.84
2016-04-05T02:03:43.923Z,99.75
2016-04-05T02:04:43.973Z,99.27
2016-04-05T02:05:53.495Z,99.27
2016-04-05T02:06:53.512Z,98.6
2016-04-05T02:07:53.552Z,98.94
2016-04-05T02:08:53.773Z,98.85
2016-04-05T02:09:53.588Z,99.04
2016-04-05T02:10:53.591Z,99.04
2016-04-05T02:12:06.374Z,98.46
2016-04-05T02:12:53.627Z,98.65
2016-04-05T02:13:53.661Z,98.56
2016-04-05T02:14:53.898Z,98.65
2016-04-05T02:15:53.698Z,98.65
2016-04-05T02:16:53.715Z,98.6
2016-04-05T02:17:53.734Z,98.65
2016-04-05T02:19:00.018Z,98.75
2016-04-05T02:19:53.771Z,99.04
2016-04-05T02:21:12.993Z,98.65
2016-04-05T02:21:56.854Z,98.85
2016-04-05T02:22:56.888Z,98.65
2016-04-05T02:23:56.907Z,98.46
2016-04-05T02:24:56.925Z,98.46
2016-04-05T02:25:56.943Z,98.36
2016-04-05T02:26:56.961Z,98.27
2016-04-05T02:27:58.386Z,98.65
2016-04-05T02:28:56.998Z,97.99
2016-04-05T02:29:57.016Z,97.89
2016-04-05T02:30:57.035Z,98.65
2016-04-05T02:31:57.053Z,98.65
2016-04-05T02:32:57.072Z,98.65
2016-04-05T02:33:57.199Z,98.56
2016-04-05T02:34:57.124Z,98.65
2016-04-05T02:35:57.189Z,98.56
2016-04-05T02:36:57.161Z,98.56
2016-04-05T02:37:57.178Z,98.85
2016-04-05T02:38:57.181Z,98.7
2016-04-05T02:39:57.824Z,98.75
2016-04-05T02:40:57.249Z,98.6
2016-04-05T02:41:57.252Z,98.79
2016-04-05T02:42:57.379Z,98.99
2016-04-05T02:43:57.305Z,99.37
2016-04-05T02:44:57.993Z,98.89
2016-04-05T02:45:57.311Z,99.18
2016-04-05T02:46:57.333Z,99.46
2016-04-05T02:47:57.932Z,99.55
2016-04-05T02:49:10.063Z,99.46
2016-04-05T02:49:57.350Z,99.18
2016-04-05T02:51:23.052Z,99.37
2016-04-05T02:52:10.097Z,99.65
2016-04-05T02:52:57.391Z,99.84
2016-04-05T02:53:57.405Z,99.94
2016-04-05T02:54:57.451Z,99.65
2016-04-05T02:55:57.452Z,99.65
2016-04-05T02:56:57.453Z,99.46
2016-04-05T02:58:10.298Z,99.75
2016-04-05T02:58:57.486Z,99.84
2016-04-05T02:59:56.800Z,99.65
2016-04-05T03:00:57.520Z,99.55
2016-04-05T03:01:57.538Z,99.37
2016-04-05T03:02:57.556Z,99.08
2016-04-05T03:03:57.589Z,99.08
2016-04-05T03:04:57.622Z,99.27
2016-04-05T03:05:57.625Z,99.37
2016-04-05T03:07:03.924Z,99.37
2016-04-05T03:07:57.865Z,99.27
2016-04-05T03:09:16.883Z,98.89
2016-04-05T03:09:57.683Z,99.18
2016-04-05T03:11:23.405Z,99.27
2016-04-05T03:11:57.922Z,99.18
2016-04-05T03:12:57.754Z,98.99
2016-04-05T03:14:10.522Z,99.27
2016-04-05T03:14:57.868Z,99.37
2016-04-05T03:16:17.027Z,99.46
2016-04-05T03:17:04.108Z,99.46
2016-04-05T03:18:23.517Z,99.37
2016-04-05T03:19:10.613Z,99.08
2016-04-05T03:19:57.897Z,98.99
2016-04-05T03:21:13.275Z,99.27
2016-04-05T03:22:13.278Z,99.37
2016-04-05T03:23:26.031Z,99.46
2016-04-05T03:24:29.095Z,99.46
2016-04-05T03:26:38.679Z,99.84
2016-04-05T03:27:38.698Z,99.99
2016-04-05T03:28:38.715Z,99.99
2016-04-05T03:29:45.032Z,99.99
2016-04-05T03:30:45.018Z,99.99
2016-04-05T03:31:38.787Z,99.99
2016-04-05T03:32:57.995Z,99.99
2016-04-05T03:33:38.808Z,99.84
2016-04-05T03:34:38.857Z,99.99
2016-04-05T03:36:10.156Z,99.99
2016-04-05T03:37:19.722Z,99.89
2016-04-05T03:37:54.115Z,99.75
2016-04-05T03:40:09.292Z,99.75
2016-04-05T03:41:09.327Z,99.18
2016-04-05T03:42:09.422Z,99.32
2016-04-05T03:43:22.097Z,98.65
2016-04-05T03:44:08.616Z,98.51
2016-04-05T03:45:28.588Z,98.7
2016-04-05T03:46:28.605Z,98.79
2016-04-05T03:47:12.499Z,98.6
2016-04-05T03:48:12.518Z,98.22
2016-04-05T03:49:12.536Z,98.32
2016-04-05T03:50:27.726Z,98.51
2016-04-05T03:51:27.744Z,98.41
2016-04-05T03:52:27.746Z,98.7
2016-04-05T03:53:42.984Z,97.75
2016-04-05T03:54:42.987Z,98.13
2016-04-05T03:55:49.271Z,97.94
2016-04-05T03:56:44.430Z,98.03
2016-04-05T03:58:02.263Z,98.13
2016-04-05T03:58:46.123Z,98.03
2016-04-05T03:59:46.140Z,98.22
2016-04-05T04:01:17.458Z,98.03
2016-04-05T04:02:01.930Z,98.22
2016-04-05T04:03:01.948Z,97.56
2016-04-05T04:04:01.981Z,97.27
2016-04-05T04:05:08.266Z,97.08
2016-04-05T04:06:02.019Z,97.17
2016-04-05T04:07:02.037Z,97.17
2016-04-05T04:08:02.072Z,96.51
2016-04-05T04:09:14.808Z,96.51
2016-04-05T04:10:02.108Z,96.98
2016-04-05T04:11:02.111Z,97.08
2016-04-05T04:12:14.879Z,96.22
2016-04-05T04:13:02.163Z,96.32
2016-04-05T04:14:15.119Z,96.32
2016-04-05T04:15:02.261Z,96.12
2016-04-05T04:16:14.952Z,96.7
2016-04-05T04:17:03.642Z,96.51
2016-04-05T04:18:21.441Z,96.8
2016-04-05T04:19:02.257Z,97.17
2016-04-05T04:20:33.588Z,97.17
2016-04-05T04:21:11.824Z,97.17
2016-04-05T04:23:52.720Z,96.6
2016-04-05T04:24:27.082Z,96.6
2016-04-05T04:26:42.963Z,96.41
2016-04-05T04:27:42.951Z,96.03
2016-04-05T04:28:58.128Z,95.94
2016-04-05T04:29:58.161Z,95.84
2016-04-05T04:31:04.429Z,95.56
2016-04-05T04:31:59.651Z,95.75
2016-04-05T04:33:29.514Z,94.79
2016-04-05T04:34:39.063Z,94.89
2016-04-05T04:35:13.440Z,94.6
2016-04-05T04:36:45.333Z,94.79
2016-04-05T04:37:54.993Z,94.6
2016-04-05T04:38:29.339Z,94.22
2016-04-05T04:41:10.410Z,94.41
2016-04-05T04:41:44.753Z,94.22
2016-04-05T04:44:25.621Z,93.93
2016-04-05T04:44:59.983Z,93.84
2016-04-05T04:46:32.814Z,93.65
2016-04-05T04:47:07.598Z,93.37
2016-04-05T04:49:19.775Z,92.89
2016-04-05T04:50:19.793Z,92.69
2016-04-05T04:51:19.796Z,92.79
2016-04-05T04:52:19.815Z,92.79
2016-04-05T04:53:19.848Z,92.79
2016-04-05T04:54:19.867Z,92.32
2016-04-05T04:55:19.869Z,92.6
2016-04-05T04:56:19.903Z,92.03
2016-04-05T04:57:19.922Z,91.74
2016-04-05T04:58:19.940Z,91.84
2016-04-05T04:59:20.115Z,91.94
2016-04-05T05:00:19.992Z,92.22
2016-04-05T05:01:20.073Z,91.65
2016-04-05T05:02:20.013Z,91.65
2016-04-05T05:03:20.031Z,91.65
2016-04-05T05:04:20.050Z,91.74
2016-04-05T05:05:20.084Z,92.13
2016-04-05T05:06:20.086Z,91.74
2016-04-05T05:07:20.105Z,91.27
2016-04-05T05:08:20.123Z,91.08
2016-04-05T05:09:20.142Z,91.08
2016-04-05T05:10:20.159Z,90.89
2016-04-05T05:11:20.178Z,91.17
2016-04-05T05:12:32.947Z,91.46
2016-04-05T05:13:20.230Z,91.27
2016-04-05T05:14:39.452Z,91.08
2016-04-05T05:15:21.955Z,91.17
2016-04-05T05:16:20.286Z,90.98
2016-04-05T05:17:20.288Z,90.98
2016-04-05T05:18:20.321Z,91.08
2016-04-05T05:19:20.356Z,90.79
2016-04-05T05:20:20.358Z,90.79
2016-04-05T05:21:20.376Z,90.5
2016-04-05T05:22:20.411Z,90.7
2016-04-05T05:23:20.429Z,90.6
2016-04-05T05:24:20.447Z,90.6
2016-04-05T05:25:20.466Z,91.08
2016-04-05T05:26:20.484Z,91.08
2016-04-05T05:27:20.502Z,90.6
2016-04-05T05:28:26.865Z,90.5
2016-04-05T05:29:20.555Z,90.31
2016-04-05T05:30:20.604Z,90.7
2016-04-05T05:31:20.576Z,90.89
2016-04-05T05:32:21.203Z,90.79
2016-04-05T05:33:20.628Z,90.5
2016-04-05T05:34:20.631Z,90.12
2016-04-05T05:35:20.648Z,90.31
2016-04-05T05:36:20.667Z,89.84
2016-04-05T05:37:20.701Z,90.12
2016-04-05T05:38:33.438Z,89.94
2016-04-05T05:39:20.723Z,90.22
2016-04-05T05:40:46.428Z,89.46
2016-04-05T05:41:30.321Z,90.03
2016-04-05T05:42:55.996Z,89.46
2016-04-05T05:43:30.342Z,89.75
2016-04-05T05:45:45.567Z,89.46
2016-04-05T05:46:45.553Z,89.46
2016-04-05T05:47:45.588Z,90.22
2016-04-05T05:48:45.605Z,89.94
2016-04-05T05:49:45.624Z,89.46
2016-04-05T05:50:45.641Z,89.46
2016-04-05T05:52:11.335Z,89.36
2016-04-05T05:52:58.432Z,89.17
2016-04-05T05:53:45.697Z,89.36
2016-04-05T05:55:01.515Z,89.55
2016-04-05T05:55:55.280Z,89.26
2016-04-05T05:56:55.283Z,89.75
2016-04-05T05:58:08.038Z,89.36
2016-04-05T05:58:55.335Z,89.55
2016-04-05T05:59:55.370Z,89.22
2016-04-05T06:00:55.388Z,88.93
2016-04-05T06:01:55.391Z,88.93
2016-04-05T06:02:55.518Z,88.55
2016-04-05T06:03:55.426Z,88.84
2016-04-05T06:04:55.509Z,89.12
2016-04-05T06:06:01.731Z,89.22
2016-04-05T06:07:14.720Z,89.69
2016-04-05T06:08:14.706Z,88.64
2016-04-05T06:08:55.519Z,88.55
2016-04-05T06:10:21.228Z,88.64
2016-04-05T06:10:55.556Z,89.03
2016-04-05T06:12:26.889Z,89.03
2016-04-05T06:13:05.251Z,88.84
2016-04-05T06:14:05.253Z,88.17
2016-04-05T06:15:20.694Z,88.84
2016-04-05T06:16:20.572Z,89.22
2016-04-05T06:17:20.605Z,88.36
2016-04-05T06:18:20.624Z,88.84
2016-04-05T06:19:21.252Z,88.93
2016-04-05T06:20:20.660Z,88.84
2016-04-05T06:21:33.413Z,88.74
2016-04-05T06:22:33.447Z,89.03
2016-04-05T06:23:39.950Z,88.84
2016-04-05T06:24:20.750Z,88.93
2016-04-05T06:25:20.768Z,88.74
2016-04-05T06:26:30.176Z,88.17
2016-04-05T06:27:30.196Z,88.93
2016-04-05T06:28:33.276Z,88.36
2016-04-05T06:29:33.293Z,88.45
2016-04-05T06:30:46.063Z,88.84
2016-04-05T06:32:04.646Z,88.93
2016-04-05T06:32:59.039Z,89.03
2016-04-05T06:33:33.382Z,89.03
2016-04-05T06:34:33.401Z,88.64
2016-04-05T06:35:33.435Z,89.12
2016-04-05T06:36:33.453Z,88.64
2016-04-05T06:37:33.472Z,89.03
2016-04-05T06:38:39.740Z,88.74
2016-04-05T06:39:46.228Z,88.07
2016-04-05T06:40:33.511Z,87.79
2016-04-05T06:41:33.545Z,87.12
2016-04-05T06:42:34.970Z,87.02
2016-04-05T06:43:59.272Z,86.88
2016-04-05T06:44:43.178Z,86.59
2016-04-05T06:46:05.434Z,85.93
2016-04-05T06:46:49.325Z,85.64
2016-04-05T06:48:15.047Z,84.59
2016-04-05T06:48:49.376Z,84.78
2016-04-05T06:49:49.380Z,84.11
2016-04-05T06:50:58.931Z,84.2
2016-04-05T06:51:59.013Z,83.44
2016-04-05T06:52:58.983Z,83.25
2016-04-05T06:54:11.721Z,83.54
2016-04-05T06:54:59.005Z,83.48
2016-04-05T06:56:24.710Z,83.29
2016-04-05T06:57:05.322Z,82.91
2016-04-05T06:57:59.075Z,82.63
2016-04-05T06:59:05.359Z,82.24
2016-04-05T06:59:59.112Z,82.34
2016-04-05T07:00:59.130Z,82.34
2016-04-05T07:01:59.148Z,82.43
2016-04-05T07:02:59.167Z,82.72
2016-04-05T07:03:59.201Z,81.96
2016-04-05T07:05:05.468Z,81.86
2016-04-05T07:05:59.237Z,81.96
2016-04-05T07:07:05.506Z,81.48
2016-04-05T07:08:05.541Z,82.06
2016-04-05T07:08:59.294Z,81.38
2016-04-05T07:10:05.578Z,81.86
2016-04-05T07:10:59.346Z,82.15
2016-04-05T07:12:18.552Z,82.34
2016-04-05T07:12:59.399Z,83.2
2016-04-05T07:13:59.433Z,83.2
2016-04-05T07:14:59.419Z,83.11
2016-04-05T07:15:59.453Z,83.58
2016-04-05T07:17:05.753Z,83.48
2016-04-05T07:17:59.491Z,83.48
2016-04-05T07:19:18.696Z,83.39
2016-04-05T07:19:59.527Z,83.67
2016-04-05T07:20:59.530Z,83.01
2016-04-05T07:22:12.298Z,82
2016-04-05T07:22:59.582Z,82.38
2016-04-05T07:23:59.616Z,82.29
2016-04-05T07:25:12.384Z,83.24
2016-04-05T07:26:01.059Z,82.19
2016-04-05T07:27:25.357Z,82.57
2016-04-05T07:28:18.892Z,82.67
2016-04-05T07:28:59.707Z,82.29
2016-04-05T07:30:25.490Z,83.24
2016-04-05T07:31:09.385Z,82.29
2016-04-05T07:32:35.059Z,82.57
2016-04-05T07:33:09.436Z,82.72
2016-04-05T07:35:20.411Z,83.24
2016-04-05T07:36:20.429Z,82.29
2016-04-05T07:37:20.431Z,82.95
2016-04-05T07:38:20.685Z,83.05
2016-04-05T07:39:20.484Z,82.29
2016-04-05T07:40:20.502Z,83.24
2016-04-05T07:41:20.536Z,82.67
2016-04-05T07:42:20.570Z,81.62
2016-04-05T07:43:33.339Z,82.29
2016-04-05T07:44:20.607Z,81.24
2016-04-05T07:45:46.313Z,82.19
2016-04-05T07:46:33.363Z,79.99
2016-04-05T07:47:20.646Z,81.43
2016-04-05T07:48:39.868Z,81.43
2016-04-05T07:49:26.949Z,81.52
2016-04-05T07:50:46.405Z,80.19
2016-04-05T07:51:20.735Z,80.19
2016-04-05T07:52:20.785Z,80.19
2016-04-05T07:53:20.772Z,79.99
2016-04-05T07:54:33.540Z,80.8
2016-04-05T07:55:27.090Z,80.28
2016-04-05T07:56:20.858Z,80.09
2016-04-05T07:57:36.673Z,80.66
2016-04-05T07:58:36.691Z,80.51
2016-04-05T07:59:36.726Z,80.51
2016-04-05T08:00:36.868Z,79.65
2016-04-05T08:01:36.778Z,79.27
2016-04-05T08:02:38.217Z,78.79
2016-04-05T08:03:36.830Z,78.89
2016-04-05T08:04:56.036Z,78.7
2016-04-05T08:05:39.929Z,79.17
2016-04-05T08:06:39.932Z,79.08
2016-04-05T08:07:39.950Z,78.7
2016-04-05T08:08:39.984Z,78.31
2016-04-05T08:09:39.987Z,78.03
2016-04-05T08:10:52.786Z,78.31
2016-04-05T08:11:40.039Z,78.74
2016-04-05T08:12:59.275Z,78.6
2016-04-05T08:13:40.076Z,78.07
2016-04-05T08:15:05.784Z,78.99
2016-04-05T08:15:51.034Z,78.89
2016-04-05T08:16:51.130Z,79.17
2016-04-05T08:18:03.902Z,79.27
2016-04-05T08:18:51.167Z,78.6
2016-04-05T08:19:51.201Z,78.31
2016-04-05T08:20:51.220Z,78.79
2016-04-05T08:21:51.269Z,80.04
2016-04-05T08:22:51.271Z,79.61
2016-04-05T08:23:51.305Z,79.23
2016-04-05T08:24:57.573Z,80.09
2016-04-05T08:25:51.358Z,80.57
2016-04-05T08:26:51.360Z,82.38
2016-04-05T08:27:57.660Z,82.38
2016-04-05T08:28:51.397Z,83.05
2016-04-05T08:29:51.431Z,82.48
2016-04-05T08:30:51.481Z,82.63
2016-04-05T08:31:51.452Z,82.76
2016-04-05T08:32:51.579Z,83.24
2016-04-05T08:33:51.504Z,83.53
2016-04-05T08:34:51.523Z,83.05
2016-04-05T08:35:57.838Z,83.14
2016-04-05T08:36:51.559Z,83.14
2016-04-05T08:37:51.578Z,83.62
2016-04-05T08:39:04.348Z,83.62
2016-04-05T08:39:51.630Z,84.29
2016-04-05T08:40:51.648Z,84
2016-04-05T08:41:51.681Z,83.91
2016-04-05T08:43:23.016Z,84
2016-04-05T08:44:10.924Z,83.81
2016-04-05T08:44:51.736Z,83.72
2016-04-05T08:46:17.508Z,83.62
2016-04-05T08:46:51.789Z,84.39
2016-04-05T08:47:51.823Z,84.2
2016-04-05T08:48:51.810Z,84.58
2016-04-05T08:49:51.845Z,85.53
2016-04-05T08:50:53.300Z,84.96
2016-04-05T08:52:04.633Z,83.72
2016-04-05T08:52:51.915Z,84.77
2016-04-05T08:53:51.932Z,83.72
2016-04-05T08:54:51.967Z,84.39
2016-04-05T08:55:51.985Z,85.15
2016-04-05T08:57:17.663Z,84.43
2016-04-05T08:58:01.571Z,84.86
2016-04-05T08:59:20.777Z,84.48
2016-04-05T09:00:01.593Z,84.58
2016-04-05T09:01:01.626Z,84.1
2016-04-05T09:02:07.926Z,85.72
2016-04-05T09:03:01.663Z,86.39
2016-04-05T09:04:01.682Z,86.39
2016-04-05T09:05:01.715Z,86.2
2016-04-05T09:06:01.718Z,85.44
2016-04-05T09:07:01.736Z,85.91
2016-04-05T09:08:08.036Z,87.25
2016-04-05T09:09:01.789Z,86.01
2016-04-05T09:10:01.811Z,86.87
2016-04-05T09:11:08.081Z,86.82
2016-04-05T09:12:01.864Z,86.91
2016-04-05T09:13:21.117Z,86.05
2016-04-05T09:14:02.088Z,86.91
2016-04-05T09:15:33.231Z,86.91
2016-04-05T09:16:14.531Z,86.34
2016-04-05T09:17:42.799Z,87.1
2016-04-05T09:18:21.021Z,86.43
2016-04-05T09:19:21.055Z,86.43
2016-04-05T09:20:21.074Z,86.53
2016-04-05T09:21:21.122Z,86.82
2016-04-05T09:22:21.141Z,86.29
2016-04-05T09:23:21.894Z,84.95
2016-04-05T09:24:33.896Z,85.9
2016-04-05T09:25:21.196Z,85.24
2016-04-05T09:28:37.173Z,84.52
2016-04-05T09:29:37.191Z,84.13
2016-04-05T09:30:37.209Z,85.28
2016-04-05T09:31:37.353Z,84.42
2016-04-05T09:32:37.871Z,83.56
2016-04-05T09:33:50.014Z,84.52
2016-04-05T09:34:50.064Z,84.13
2016-04-05T09:35:37.332Z,84.13
2016-04-05T09:36:56.554Z,84.42
2016-04-05T09:37:37.385Z,84.99
2016-04-05T09:38:37.403Z,86.43
2016-04-05T09:39:37.437Z,85.47
2016-04-05T09:40:50.189Z,86.33
2016-04-05T09:41:43.723Z,85.47
2016-04-05T09:43:47.151Z,86.52
2016-04-05T09:44:47.184Z,85.28
2016-04-05T09:45:59.952Z,85.18
2016-04-05T09:47:12.911Z,85.47
2016-04-05T09:48:29.007Z,86.52
2016-04-05T09:49:16.104Z,85.47
2016-04-05T09:50:41.951Z,85.47
2016-04-05T09:51:17.500Z,84.8
2016-04-05T09:52:16.252Z,85.38
2016-04-05T09:53:19.209Z,84.27
2016-04-05T09:54:29.008Z,83.6
2016-04-05T09:55:16.199Z,83.98
2016-04-05T09:56:41.873Z,83.6
2016-04-05T09:57:28.954Z,83.69
2016-04-05T09:58:16.254Z,83.6
2016-04-05T09:59:35.506Z,83.5
2016-04-05T10:00:16.321Z,84.55
2016-04-05T10:01:36.167Z,85.13
2016-04-05T10:02:16.343Z,85.94
2016-04-05T10:03:16.360Z,86.33
2016-04-05T10:04:16.988Z,86.9
2016-04-05T10:05:29.147Z,86.71
2016-04-05T10:06:16.431Z,87.57
2016-04-05T10:07:16.480Z,88.34
2016-04-05T10:08:16.483Z,88.15
2016-04-05T10:09:42.189Z,88.62
2016-04-05T10:10:26.082Z,89.25
2016-04-05T10:11:45.319Z,89.15
2016-04-05T10:12:29.291Z,90.49
2016-04-05T10:13:29.294Z,91.16
2016-04-05T10:14:42.062Z,90.73
2016-04-05T10:15:29.940Z,90.2
2016-04-05T10:16:49.192Z,90.97
2016-04-05T10:17:29.383Z,90.59
2016-04-05T10:18:29.401Z,90.78
2016-04-05T10:19:38.950Z,90.39
2016-04-05T10:20:38.985Z,90.59
2016-04-05T10:21:45.268Z,90.2
2016-04-05T10:22:39.021Z,90.39
2016-04-05T10:23:58.258Z,90.78
2016-04-05T10:24:40.495Z,90.88
2016-04-05T10:25:39.077Z,91.54
2016-04-05T10:26:39.110Z,91.54
2016-04-05T10:28:04.819Z,91.45
2016-04-05T10:28:40.616Z,91.83
2016-04-05T10:29:39.274Z,92.59
2016-04-05T10:30:39.183Z,92.59
2016-04-05T10:31:39.232Z,92.26
2016-04-05T10:32:39.267Z,92.5
2016-04-05T10:33:39.270Z,92.11
2016-04-05T10:34:40.726Z,92.45
2016-04-05T10:35:39.321Z,92.88
2016-04-05T10:36:39.324Z,93.16
2016-04-05T10:37:39.373Z,92.79
2016-04-05T10:38:52.126Z,92.5
2016-04-05T10:39:39.379Z,92.97
2016-04-05T10:40:58.631Z,92.88
2016-04-05T10:41:39.431Z,93.16
2016-04-05T10:42:39.450Z,92.4
2016-04-05T10:43:40.092Z,92.11
2016-04-05T10:44:39.503Z,92.5
2016-04-05T10:45:39.536Z,92.21
2016-04-05T10:46:40.023Z,92.4
2016-04-05T10:47:39.572Z,91.74
2016-04-05T10:48:52.325Z,92.21
2016-04-05T10:49:52.406Z,92.59
2016-04-05T10:50:39.643Z,92.02
2016-04-05T10:52:05.336Z,91.64
2016-04-05T10:52:39.696Z,91.59
2016-04-05T10:54:11.044Z,91.59
2016-04-05T10:54:54.951Z,91.02
2016-04-05T10:55:54.968Z,89.67
2016-04-05T10:56:54.988Z,89.77
2016-04-05T10:57:55.021Z,89.87
2016-04-05T10:58:55.024Z,90.01
2016-04-05T10:59:55.043Z,89.24
2016-04-05T11:00:55.077Z,89.58
2016-04-05T11:01:55.095Z,90.06
2016-04-05T11:03:14.318Z,89.77
2016-04-05T11:03:58.193Z,90.34
2016-04-05T11:04:58.229Z,90.48
2016-04-05T11:05:58.246Z,89.62
2016-04-05T11:06:58.265Z,90.01
2016-04-05T11:08:11.027Z,90.58
2016-04-05T11:09:17.349Z,89.81
2016-04-05T11:10:17.539Z,89.62
2016-04-05T11:10:58.367Z,89.43
2016-04-05T11:12:29.684Z,90.1
2016-04-05T11:12:58.387Z,89.81
2016-04-05T11:13:58.422Z,89.81
2016-04-05T11:14:58.456Z,90.58
2016-04-05T11:15:58.459Z,89.72
2016-04-05T11:17:11.245Z,89.34
2016-04-05T11:17:58.526Z,87.95
2016-04-05T11:19:17.751Z,87.08
2016-04-05T11:20:01.626Z,86.41
2016-04-05T11:21:01.659Z,85.6
2016-04-05T11:22:14.415Z,84.83
2016-04-05T11:23:33.012Z,81.81
2016-04-05T11:24:02.342Z,82.04
2016-04-05T11:25:01.748Z,81.37
2016-04-05T11:26:02.378Z,81.62
2016-04-05T11:27:08.256Z,82.96
2016-04-05T11:28:14.556Z,83.25
2016-04-05T11:29:01.853Z,82.38
2016-04-05T11:30:01.872Z,82.76
2016-04-05T11:31:02.142Z,84.16
2016-04-05T11:32:01.924Z,83.59
2016-04-05T11:33:02.005Z,84.83
2016-04-05T11:34:01.960Z,85.41
2016-04-05T11:35:01.979Z,85.31
2016-04-05T11:36:08.280Z,85.98
2016-04-05T11:37:21.237Z,85.41
2016-04-05T11:38:02.049Z,84.92
2016-04-05T11:39:21.273Z,85.6
2016-04-05T11:40:14.854Z,83.78
2016-04-05T11:41:02.122Z,83.3
2016-04-05T11:42:02.156Z,82.76
2016-04-05T11:43:02.189Z,82.76
2016-04-05T11:44:02.192Z,82.48
2016-04-05T11:45:02.226Z,81.71
2016-04-05T11:46:02.260Z,82.62
2016-04-05T11:47:08.545Z,80.32
2016-04-05T11:48:02.297Z,79.78
2016-04-05T11:49:03.737Z,79.39
2016-04-05T11:50:03.802Z,79.01
2016-04-05T11:51:02.365Z,78.72
2016-04-05T11:52:02.392Z,78.72
2016-04-05T11:53:02.416Z,78.82
2016-04-05T11:54:02.410Z,77.19
2016-04-05T11:55:08.701Z,78.05
2016-04-05T11:56:08.696Z,78.53
2016-04-05T11:57:02.446Z,77.13
2016-04-05T11:58:02.477Z,77.38
2016-04-05T11:59:02.507Z,78.44
2016-04-05T12:00:02.537Z,78.15
2016-04-05T12:01:03.148Z,78.34
2016-04-05T12:02:15.321Z,78.44
2016-04-05T12:03:15.338Z,79.11
2016-04-05T12:04:02.620Z,77.95
2016-04-05T12:05:02.699Z,79.21
2016-04-05T12:07:17.986Z,79.88
2016-04-05T12:08:18.004Z,80.74
2016-04-05T12:09:24.287Z,79.59
2016-04-05T12:10:18.258Z,78.59
2016-04-05T12:11:37.307Z,80.41
2016-04-05T12:12:37.326Z,80.74
2016-04-05T12:13:43.797Z,80.64
2016-04-05T12:14:43.878Z,79.59
2016-04-05T12:15:18.178Z,79.88
2016-04-05T12:16:33.367Z,80.26
2016-04-05T12:17:33.402Z,80.07
2016-04-05T12:18:39.701Z,79.68
2016-04-05T12:19:34.861Z,79.39
2016-04-05T12:20:33.488Z,79.49
2016-04-05T12:21:33.506Z,79.11
2016-04-05T12:22:46.352Z,79.01
2016-04-05T12:23:34.980Z,78.72
2016-04-05T12:24:52.780Z,79.39
2016-04-05T12:25:36.642Z,79.21
2016-04-05T12:26:59.285Z,79.59
2016-04-05T12:27:46.382Z,80.2
2016-04-05T12:28:33.696Z,79.01
2016-04-05T12:29:33.700Z,79.49
2016-04-05T12:30:46.452Z,79.01
2016-04-05T12:31:33.940Z,79.39
2016-04-05T12:32:33.770Z,78.92
2016-04-05T12:33:33.898Z,79.78
2016-04-05T12:34:53.025Z,79.49
2016-04-05T12:36:02.684Z,79.49
2016-04-05T12:36:56.234Z,79.49
2016-04-05T12:38:11.271Z,79.3
2016-04-05T12:39:11.462Z,80.07
2016-04-05T12:40:17.745Z,80.74
2016-04-05T12:41:12.919Z,81.95
2016-04-05T12:42:24.281Z,81.18
2016-04-05T12:43:11.581Z,81.37
2016-04-05T12:44:24.318Z,82.71
2016-04-05T12:45:11.603Z,82.23
2016-04-05T12:46:11.698Z,82.81
2016-04-05T12:47:11.653Z,83.05
2016-04-05T12:48:11.689Z,83.72
2016-04-05T12:49:11.707Z,84.68
2016-04-05T12:50:11.741Z,84.97
2016-04-05T12:51:11.759Z,83.92
2016-04-05T12:52:11.778Z,84.64
2016-04-05T12:53:12.436Z,85.5
2016-04-05T12:54:24.564Z,85.79
2016-04-05T12:55:24.613Z,86.74
2016-04-05T12:56:37.538Z,86.22
2016-04-05T12:57:11.915Z,86.61
2016-04-05T12:58:11.934Z,87.56
2016-04-05T12:59:11.968Z,88.23
2016-04-05T13:00:11.985Z,88.13
2016-04-05T13:01:21.551Z,88.04
2016-04-05T13:02:21.569Z,88.9
2016-04-05T13:03:34.384Z,89
2016-04-05T13:04:21.637Z,88.9
2016-04-05T13:05:47.312Z,90.05
2016-04-05T13:06:22.251Z,89.09
2016-04-05T13:07:47.348Z,89.48
2016-04-05T13:08:21.711Z,89.48
2016-04-05T13:09:21.745Z,88.33
2016-04-05T13:10:21.888Z,88.13
2016-04-05T13:11:21.781Z,88.62
2016-04-05T13:12:21.971Z,88.52
2016-04-05T13:13:21.818Z,88.9
2016-04-05T13:14:21.852Z,89
2016-04-05T13:15:21.870Z,89.29
2016-04-05T13:16:21.935Z,89.19
2016-04-05T13:17:34.657Z,89.38
2016-04-05T13:18:21.941Z,89.19
2016-04-05T13:19:47.662Z,90.44